sensor_id;sensor_type;location;lat;lon;timestamp;P1;durP1;ratioP1;P2;durP2;ratioP2
47844;SDS011;33605;48.822;8.796;2023-04-25T00:01:20;2.67;;;2.47;;
47844;SDS011;33605;48.822;8.796;2023-04-25T00:03:47;3.07;;;2.80;;
47844;SDS011;33605;48.822;8.796;2023-04-25T00:06:13;5.93;;;2.67;;
47844;SDS011;33605;48.822;8.796;2023-04-25T00:08:38;2.90;;;2.70;;
47844;SDS011;33605;48.822;8.796;2023-04-25T00:11:04;3.83;;;2.10;;
47844;SDS011;33605;48.822;8.796;2023-04-25T00:13:30;1.90;;;1.80;;
47844;SDS011;33605;48.822;8.796;2023-04-25T00:15:55;2.13;;;2.03;;
47844;SDS011;33605;48.822;8.796;2023-04-25T00:18:22;3.10;;;2.60;;
47844;SDS011;33605;48.822;8.796;2023-04-25T00:20:49;2.60;;;2.27;;
47844;SDS011;33605;48.822;8.796;2023-04-25T00:23:17;2.70;;;2.50;;
47844;SDS011;33605;48.822;8.796;2023-04-25T00:25:49;2.73;;;2.53;;
47844;SDS011;33605;48.822;8.796;2023-04-25T00:28:15;3.30;;;2.93;;
47844;SDS011;33605;48.822;8.796;2023-04-25T00:30:41;3.07;;;2.70;;
47844;SDS011;33605;48.822;8.796;2023-04-25T00:33:08;3.30;;;2.90;;
47844;SDS011;33605;48.822;8.796;2023-04-25T00:35:34;2.83;;;2.60;;
47844;SDS011;33605;48.822;8.796;2023-04-25T00:38:00;3.70;;;3.17;;
47844;SDS011;33605;48.822;8.796;2023-04-25T00:40:26;3.10;;;2.47;;
47844;SDS011;33605;48.822;8.796;2023-04-25T00:42:52;3.30;;;2.90;;
47844;SDS011;33605;48.822;8.796;2023-04-25T00:45:19;3.70;;;3.30;;
47844;SDS011;33605;48.822;8.796;2023-04-25T00:47:45;4.27;;;3.00;;
47844;SDS011;33605;48.822;8.796;2023-04-25T00:50:12;3.23;;;2.93;;
47844;SDS011;33605;48.822;8.796;2023-04-25T00:52:42;2.57;;;2.33;;
47844;SDS011;33605;48.822;8.796;2023-04-25T00:55:09;5.00;;;2.90;;
47844;SDS011;33605;48.822;8.796;2023-04-25T00:57:35;3.50;;;2.93;;
47844;SDS011;33605;48.822;8.796;2023-04-25T01:00:02;3.20;;;2.67;;
47844;SDS011;33605;48.822;8.796;2023-04-25T01:02:30;3.07;;;2.50;;
47844;SDS011;33605;48.822;8.796;2023-04-25T01:04:57;2.63;;;2.40;;
47844;SDS011;33605;48.822;8.796;2023-04-25T01:07:23;3.10;;;2.30;;
47844;SDS011;33605;48.822;8.796;2023-04-25T01:09:51;2.27;;;2.00;;
47844;SDS011;33605;48.822;8.796;2023-04-25T01:12:17;3.20;;;2.40;;
47844;SDS011;33605;48.822;8.796;2023-04-25T01:14:42;2.63;;;2.13;;
47844;SDS011;33605;48.822;8.796;2023-04-25T01:17:09;2.50;;;2.30;;
47844;SDS011;33605;48.822;8.796;2023-04-25T01:19:35;3.17;;;2.57;;
47844;SDS011;33605;48.822;8.796;2023-04-25T01:22:00;2.57;;;2.37;;
47844;SDS011;33605;48.822;8.796;2023-04-25T01:24:26;3.03;;;2.33;;
47844;SDS011;33605;48.822;8.796;2023-04-25T01:26:52;4.60;;;2.40;;
47844;SDS011;33605;48.822;8.796;2023-04-25T01:29:21;2.57;;;2.37;;
47844;SDS011;33605;48.822;8.796;2023-04-25T01:31:47;2.80;;;2.27;;
47844;SDS011;33605;48.822;8.796;2023-04-25T01:34:13;2.93;;;2.50;;
47844;SDS011;33605;48.822;8.796;2023-04-25T01:36:39;5.30;;;2.43;;
47844;SDS011;33605;48.822;8.796;2023-04-25T01:39:05;2.80;;;2.60;;
47844;SDS011;33605;48.822;8.796;2023-04-25T01:41:31;2.90;;;2.50;;
47844;SDS011;33605;48.822;8.796;2023-04-25T01:43:57;3.80;;;2.60;;
47844;SDS011;33605;48.822;8.796;2023-04-25T01:46:23;5.07;;;2.80;;
47844;SDS011;33605;48.822;8.796;2023-04-25T01:48:49;4.77;;;2.90;;
47844;SDS011;33605;48.822;8.796;2023-04-25T01:51:15;5.03;;;2.90;;
47844;SDS011;33605;48.822;8.796;2023-04-25T01:53:40;2.80;;;2.60;;
47844;SDS011;33605;48.822;8.796;2023-04-25T01:56:07;3.00;;;2.80;;
47844;SDS011;33605;48.822;8.796;2023-04-25T01:58:33;3.20;;;2.60;;
47844;SDS011;33605;48.822;8.796;2023-04-25T02:00:58;2.90;;;2.70;;
47844;SDS011;33605;48.822;8.796;2023-04-25T02:03:25;2.77;;;2.57;;
47844;SDS011;33605;48.822;8.796;2023-04-25T02:05:51;7.00;;;3.07;;
47844;SDS011;33605;48.822;8.796;2023-04-25T02:08:16;3.73;;;2.57;;
47844;SDS011;33605;48.822;8.796;2023-04-25T02:10:43;2.57;;;2.37;;
47844;SDS011;33605;48.822;8.796;2023-04-25T02:13:08;3.13;;;2.83;;
47844;SDS011;33605;48.822;8.796;2023-04-25T02:15:34;3.67;;;2.40;;
47844;SDS011;33605;48.822;8.796;2023-04-25T02:18:00;4.90;;;2.63;;
47844;SDS011;33605;48.822;8.796;2023-04-25T02:20:26;2.10;;;2.00;;
47844;SDS011;33605;48.822;8.796;2023-04-25T02:22:55;2.93;;;2.63;;
47844;SDS011;33605;48.822;8.796;2023-04-25T02:25:21;2.63;;;2.43;;
47844;SDS011;33605;48.822;8.796;2023-04-25T02:27:47;2.50;;;2.30;;
47844;SDS011;33605;48.822;8.796;2023-04-25T02:30:13;5.90;;;2.00;;
47844;SDS011;33605;48.822;8.796;2023-04-25T02:32:39;3.27;;;2.50;;
47844;SDS011;33605;48.822;8.796;2023-04-25T02:35:06;3.87;;;2.90;;
47844;SDS011;33605;48.822;8.796;2023-04-25T02:37:37;2.53;;;2.40;;
47844;SDS011;33605;48.822;8.796;2023-04-25T02:40:03;3.20;;;2.90;;
47844;SDS011;33605;48.822;8.796;2023-04-25T02:42:29;2.60;;;2.20;;
47844;SDS011;33605;48.822;8.796;2023-04-25T02:44:55;3.73;;;2.57;;
47844;SDS011;33605;48.822;8.796;2023-04-25T02:47:20;3.83;;;2.80;;
47844;SDS011;33605;48.822;8.796;2023-04-25T02:49:46;2.77;;;2.43;;
47844;SDS011;33605;48.822;8.796;2023-04-25T02:52:12;2.60;;;2.40;;
47844;SDS011;33605;48.822;8.796;2023-04-25T02:54:38;3.03;;;2.73;;
47844;SDS011;33605;48.822;8.796;2023-04-25T02:57:04;2.70;;;2.50;;
47844;SDS011;33605;48.822;8.796;2023-04-25T02:59:30;2.50;;;2.30;;
47844;SDS011;33605;48.822;8.796;2023-04-25T03:01:56;3.13;;;2.60;;
47844;SDS011;33605;48.822;8.796;2023-04-25T03:04:21;2.47;;;2.27;;
47844;SDS011;33605;48.822;8.796;2023-04-25T03:06:48;3.53;;;2.30;;
47844;SDS011;33605;48.822;8.796;2023-04-25T03:09:14;2.93;;;2.63;;
47844;SDS011;33605;48.822;8.796;2023-04-25T03:11:40;3.47;;;2.83;;
47844;SDS011;33605;48.822;8.796;2023-04-25T03:14:05;3.27;;;2.73;;
47844;SDS011;33605;48.822;8.796;2023-04-25T03:16:31;3.40;;;3.10;;
47844;SDS011;33605;48.822;8.796;2023-04-25T03:18:56;2.90;;;2.70;;
47844;SDS011;33605;48.822;8.796;2023-04-25T03:21:22;3.30;;;3.00;;
47844;SDS011;33605;48.822;8.796;2023-04-25T03:23:48;3.40;;;3.10;;
47844;SDS011;33605;48.822;8.796;2023-04-25T03:26:14;5.27;;;4.87;;
47844;SDS011;33605;48.822;8.796;2023-04-25T03:28:41;6.13;;;5.53;;
47844;SDS011;33605;48.822;8.796;2023-04-25T03:31:06;5.07;;;4.67;;
47844;SDS011;33605;48.822;8.796;2023-04-25T03:33:32;4.10;;;3.80;;
47844;SDS011;33605;48.822;8.796;2023-04-25T03:35:58;3.40;;;3.10;;
47844;SDS011;33605;48.822;8.796;2023-04-25T03:38:23;3.77;;;3.00;;
47844;SDS011;33605;48.822;8.796;2023-04-25T03:40:49;2.60;;;2.40;;
47844;SDS011;33605;48.822;8.796;2023-04-25T03:43:16;2.37;;;2.17;;
47844;SDS011;33605;48.822;8.796;2023-04-25T03:45:42;2.90;;;2.70;;
47844;SDS011;33605;48.822;8.796;2023-04-25T03:48:07;2.60;;;2.40;;
47844;SDS011;33605;48.822;8.796;2023-04-25T03:50:33;4.83;;;3.00;;
47844;SDS011;33605;48.822;8.796;2023-04-25T03:52:58;4.57;;;3.27;;
47844;SDS011;33605;48.822;8.796;2023-04-25T03:55:24;3.27;;;2.97;;
47844;SDS011;33605;48.822;8.796;2023-04-25T03:57:50;4.57;;;2.90;;
47844;SDS011;33605;48.822;8.796;2023-04-25T04:00:15;3.10;;;2.90;;
47844;SDS011;33605;48.822;8.796;2023-04-25T04:02:41;3.10;;;2.80;;
47844;SDS011;33605;48.822;8.796;2023-04-25T04:05:06;3.47;;;3.17;;
47844;SDS011;33605;48.822;8.796;2023-04-25T04:07:32;6.30;;;3.43;;
47844;SDS011;33605;48.822;8.796;2023-04-25T04:09:58;2.83;;;2.63;;
47844;SDS011;33605;48.822;8.796;2023-04-25T04:12:24;3.90;;;3.50;;
47844;SDS011;33605;48.822;8.796;2023-04-25T04:14:50;3.33;;;3.03;;
47844;SDS011;33605;48.822;8.796;2023-04-25T04:17:16;5.10;;;3.10;;
47844;SDS011;33605;48.822;8.796;2023-04-25T04:19:41;5.07;;;3.23;;
47844;SDS011;33605;48.822;8.796;2023-04-25T04:22:07;3.63;;;3.33;;
47844;SDS011;33605;48.822;8.796;2023-04-25T04:24:32;3.90;;;3.60;;
47844;SDS011;33605;48.822;8.796;2023-04-25T04:26:58;3.70;;;3.40;;
47844;SDS011;33605;48.822;8.796;2023-04-25T04:29:24;4.33;;;3.27;;
47844;SDS011;33605;48.822;8.796;2023-04-25T04:31:50;3.57;;;3.27;;
47844;SDS011;33605;48.822;8.796;2023-04-25T04:34:17;3.40;;;3.10;;
47844;SDS011;33605;48.822;8.796;2023-04-25T04:36:43;4.40;;;3.67;;
47844;SDS011;33605;48.822;8.796;2023-04-25T04:39:11;4.00;;;3.60;;
47844;SDS011;33605;48.822;8.796;2023-04-25T04:41:37;5.63;;;3.47;;
47844;SDS011;33605;48.822;8.796;2023-04-25T04:44:02;3.63;;;3.20;;
47844;SDS011;33605;48.822;8.796;2023-04-25T04:46:28;4.57;;;4.17;;
47844;SDS011;33605;48.822;8.796;2023-04-25T04:48:55;4.23;;;3.83;;
47844;SDS011;33605;48.822;8.796;2023-04-25T04:51:21;3.77;;;3.43;;
47844;SDS011;33605;48.822;8.796;2023-04-25T04:53:47;3.63;;;3.37;;
47844;SDS011;33605;48.822;8.796;2023-04-25T04:56:12;3.60;;;2.87;;
47844;SDS011;33605;48.822;8.796;2023-04-25T04:58:38;3.30;;;3.00;;
47844;SDS011;33605;48.822;8.796;2023-04-25T05:01:04;2.93;;;2.73;;
47844;SDS011;33605;48.822;8.796;2023-04-25T05:03:30;3.03;;;2.83;;
47844;SDS011;33605;48.822;8.796;2023-04-25T05:05:55;2.63;;;2.43;;
47844;SDS011;33605;48.822;8.796;2023-04-25T05:08:21;4.00;;;2.57;;
47844;SDS011;33605;48.822;8.796;2023-04-25T05:10:47;2.93;;;2.60;;
47844;SDS011;33605;48.822;8.796;2023-04-25T05:13:12;2.63;;;2.43;;
47844;SDS011;33605;48.822;8.796;2023-04-25T05:15:38;2.60;;;2.40;;
47844;SDS011;33605;48.822;8.796;2023-04-25T05:18:03;2.87;;;2.63;;
47844;SDS011;33605;48.822;8.796;2023-04-25T05:20:29;4.00;;;2.73;;
47844;SDS011;33605;48.822;8.796;2023-04-25T05:22:55;2.97;;;2.77;;
47844;SDS011;33605;48.822;8.796;2023-04-25T05:25:20;3.47;;;2.90;;
47844;SDS011;33605;48.822;8.796;2023-04-25T05:27:46;2.73;;;2.53;;
47844;SDS011;33605;48.822;8.796;2023-04-25T05:30:12;2.67;;;2.47;;
47844;SDS011;33605;48.822;8.796;2023-04-25T05:32:37;2.80;;;2.60;;
47844;SDS011;33605;48.822;8.796;2023-04-25T05:35:03;3.20;;;2.90;;
47844;SDS011;33605;48.822;8.796;2023-04-25T05:37:31;2.40;;;2.20;;
47844;SDS011;33605;48.822;8.796;2023-04-25T05:39:57;2.67;;;2.47;;
47844;SDS011;33605;48.822;8.796;2023-04-25T05:42:23;2.70;;;2.30;;
47844;SDS011;33605;48.822;8.796;2023-04-25T05:44:49;2.70;;;2.50;;
47844;SDS011;33605;48.822;8.796;2023-04-25T05:47:15;4.00;;;3.20;;
47844;SDS011;33605;48.822;8.796;2023-04-25T05:49:40;3.23;;;2.93;;
47844;SDS011;33605;48.822;8.796;2023-04-25T05:52:06;2.83;;;2.63;;
47844;SDS011;33605;48.822;8.796;2023-04-25T05:54:32;3.73;;;3.03;;
47844;SDS011;33605;48.822;8.796;2023-04-25T05:56:57;3.23;;;2.70;;
47844;SDS011;33605;48.822;8.796;2023-04-25T05:59:23;3.73;;;2.60;;
47844;SDS011;33605;48.822;8.796;2023-04-25T06:01:49;2.53;;;2.33;;
47844;SDS011;33605;48.822;8.796;2023-04-25T06:04:15;2.70;;;2.50;;
47844;SDS011;33605;48.822;8.796;2023-04-25T06:06:40;3.83;;;3.23;;
47844;SDS011;33605;48.822;8.796;2023-04-25T06:09:06;6.60;;;3.30;;
47844;SDS011;33605;48.822;8.796;2023-04-25T06:11:31;3.60;;;3.30;;
47844;SDS011;33605;48.822;8.796;2023-04-25T06:13:57;3.40;;;2.77;;
47844;SDS011;33605;48.822;8.796;2023-04-25T06:16:22;2.93;;;2.63;;
47844;SDS011;33605;48.822;8.796;2023-04-25T06:18:50;3.43;;;3.17;;
47844;SDS011;33605;48.822;8.796;2023-04-25T06:21:16;3.30;;;3.00;;
47844;SDS011;33605;48.822;8.796;2023-04-25T06:23:42;3.37;;;3.07;;
47844;SDS011;33605;48.822;8.796;2023-04-25T06:26:08;6.60;;;3.13;;
47844;SDS011;33605;48.822;8.796;2023-04-25T06:28:33;3.17;;;2.90;;
47844;SDS011;33605;48.822;8.796;2023-04-25T06:30:59;2.63;;;2.43;;
47844;SDS011;33605;48.822;8.796;2023-04-25T06:33:24;4.37;;;2.70;;
47844;SDS011;33605;48.822;8.796;2023-04-25T06:35:51;3.13;;;2.93;;
47844;SDS011;33605;48.822;8.796;2023-04-25T06:38:17;2.53;;;2.40;;
47844;SDS011;33605;48.822;8.796;2023-04-25T06:40:43;4.50;;;3.00;;
47844;SDS011;33605;48.822;8.796;2023-04-25T06:43:09;3.53;;;2.80;;
47844;SDS011;33605;48.822;8.796;2023-04-25T06:45:35;5.07;;;3.00;;
47844;SDS011;33605;48.822;8.796;2023-04-25T06:48:01;3.13;;;2.90;;
47844;SDS011;33605;48.822;8.796;2023-04-25T06:50:26;4.10;;;3.07;;
47844;SDS011;33605;48.822;8.796;2023-04-25T06:52:52;5.53;;;2.97;;
47844;SDS011;33605;48.822;8.796;2023-04-25T06:55:18;11.53;;;3.83;;
47844;SDS011;33605;48.822;8.796;2023-04-25T06:57:43;3.50;;;3.20;;
47844;SDS011;33605;48.822;8.796;2023-04-25T07:00:09;2.50;;;2.30;;
47844;SDS011;33605;48.822;8.796;2023-04-25T07:02:36;2.70;;;2.43;;
47844;SDS011;33605;48.822;8.796;2023-04-25T07:05:02;2.80;;;2.50;;
47844;SDS011;33605;48.822;8.796;2023-04-25T07:07:29;4.23;;;3.07;;
47844;SDS011;33605;48.822;8.796;2023-04-25T07:09:55;3.77;;;3.20;;
47844;SDS011;33605;48.822;8.796;2023-04-25T07:12:21;3.40;;;2.93;;
47844;SDS011;33605;48.822;8.796;2023-04-25T07:14:46;4.80;;;2.97;;
47844;SDS011;33605;48.822;8.796;2023-04-25T07:17:12;3.67;;;3.37;;
47844;SDS011;33605;48.822;8.796;2023-04-25T07:19:37;5.47;;;2.80;;
47844;SDS011;33605;48.822;8.796;2023-04-25T07:22:04;3.23;;;3.03;;
47844;SDS011;33605;48.822;8.796;2023-04-25T07:24:30;3.10;;;2.90;;
47844;SDS011;33605;48.822;8.796;2023-04-25T07:26:56;4.70;;;2.70;;
47844;SDS011;33605;48.822;8.796;2023-04-25T07:29:22;2.93;;;2.73;;
47844;SDS011;33605;48.822;8.796;2023-04-25T07:31:48;4.20;;;3.47;;
47844;SDS011;33605;48.822;8.796;2023-04-25T07:34:14;2.90;;;2.67;;
47844;SDS011;33605;48.822;8.796;2023-04-25T07:36:40;3.50;;;3.00;;
47844;SDS011;33605;48.822;8.796;2023-04-25T07:39:06;3.47;;;2.80;;
47844;SDS011;33605;48.822;8.796;2023-04-25T07:41:34;3.40;;;3.10;;
47844;SDS011;33605;48.822;8.796;2023-04-25T07:43:59;2.90;;;2.67;;
47844;SDS011;33605;48.822;8.796;2023-04-25T07:46:25;3.90;;;3.33;;
47844;SDS011;33605;48.822;8.796;2023-04-25T07:48:51;3.87;;;3.60;;
47844;SDS011;33605;48.822;8.796;2023-04-25T07:51:16;4.10;;;3.20;;
47844;SDS011;33605;48.822;8.796;2023-04-25T07:53:44;4.13;;;3.30;;
47844;SDS011;33605;48.822;8.796;2023-04-25T07:56:10;3.93;;;3.53;;
47844;SDS011;33605;48.822;8.796;2023-04-25T07:58:36;3.80;;;3.40;;
47844;SDS011;33605;48.822;8.796;2023-04-25T08:01:02;3.80;;;2.97;;
47844;SDS011;33605;48.822;8.796;2023-04-25T08:03:28;4.17;;;3.70;;
47844;SDS011;33605;48.822;8.796;2023-04-25T08:05:53;27.10;;;17.13;;
47844;SDS011;33605;48.822;8.796;2023-04-25T08:08:19;19.40;;;11.63;;
47844;SDS011;33605;48.822;8.796;2023-04-25T08:10:44;26.37;;;13.50;;
47844;SDS011;33605;48.822;8.796;2023-04-25T08:13:10;7.93;;;6.90;;
47844;SDS011;33605;48.822;8.796;2023-04-25T08:15:36;7.00;;;6.20;;
47844;SDS011;33605;48.822;8.796;2023-04-25T08:18:02;8.67;;;5.70;;
47844;SDS011;33605;48.822;8.796;2023-04-25T08:20:27;6.80;;;5.40;;
47844;SDS011;33605;48.822;8.796;2023-04-25T08:22:53;4.80;;;4.37;;
47844;SDS011;33605;48.822;8.796;2023-04-25T08:25:19;4.47;;;4.10;;
47844;SDS011;33605;48.822;8.796;2023-04-25T08:27:45;4.20;;;3.77;;
47844;SDS011;33605;48.822;8.796;2023-04-25T08:30:10;4.70;;;3.43;;
47844;SDS011;33605;48.822;8.796;2023-04-25T08:32:36;4.37;;;4.00;;
47844;SDS011;33605;48.822;8.796;2023-04-25T08:35:05;4.43;;;4.10;;
47844;SDS011;33605;48.822;8.796;2023-04-25T08:37:31;4.03;;;3.17;;
47844;SDS011;33605;48.822;8.796;2023-04-25T08:54:47;3.40;;;3.10;;
47844;SDS011;33605;48.822;8.796;2023-04-25T08:57:13;3.20;;;2.90;;
47844;SDS011;33605;48.822;8.796;2023-04-25T08:59:40;6.60;;;3.90;;
47844;SDS011;33605;48.822;8.796;2023-04-25T09:02:10;37.07;;;6.37;;
47844;SDS011;33605;48.822;8.796;2023-04-25T09:04:39;4.00;;;2.23;;
47844;SDS011;33605;48.822;8.796;2023-04-25T09:07:06;3.27;;;1.90;;
47844;SDS011;33605;48.822;8.796;2023-04-25T09:09:31;2.03;;;1.93;;
47844;SDS011;33605;48.822;8.796;2023-04-25T09:11:57;1.83;;;1.73;;
47844;SDS011;33605;48.822;8.796;2023-04-25T09:14:24;1.70;;;1.60;;
47844;SDS011;33605;48.822;8.796;2023-04-25T09:21:49;2.20;;;1.87;;
47844;SDS011;33605;48.822;8.796;2023-04-25T09:24:16;1.67;;;1.57;;
47844;SDS011;33605;48.822;8.796;2023-04-25T09:26:53;1.60;;;1.50;;
47844;SDS011;33605;48.822;8.796;2023-04-25T09:29:19;1.57;;;1.47;;
47844;SDS011;33605;48.822;8.796;2023-04-25T09:32:09;1.80;;;1.70;;
47844;SDS011;33605;48.822;8.796;2023-04-25T09:34:40;1.50;;;1.40;;
47844;SDS011;33605;48.822;8.796;2023-04-25T09:37:10;1.50;;;1.23;;
47844;SDS011;33605;48.822;8.796;2023-04-25T09:39:37;1.80;;;1.70;;
47844;SDS011;33605;48.822;8.796;2023-04-25T09:42:04;1.70;;;1.60;;
47844;SDS011;33605;48.822;8.796;2023-04-25T09:44:30;2.77;;;2.57;;
47844;SDS011;33605;48.822;8.796;2023-04-25T09:46:56;2.13;;;2.03;;
47844;SDS011;33605;48.822;8.796;2023-04-25T09:49:22;1.90;;;1.67;;
47844;SDS011;33605;48.822;8.796;2023-04-25T09:51:54;2.40;;;2.17;;
47844;SDS011;33605;48.822;8.796;2023-04-25T09:54:24;2.80;;;2.40;;
47844;SDS011;33605;48.822;8.796;2023-04-25T09:57:56;68.07;;;7.27;;
47844;SDS011;33605;48.822;8.796;2023-04-25T10:00:26;2.43;;;1.70;;
47844;SDS011;33605;48.822;8.796;2023-04-25T10:02:52;16.43;;;2.50;;
47844;SDS011;33605;48.822;8.796;2023-04-25T10:05:19;13.23;;;2.27;;
47844;SDS011;33605;48.822;8.796;2023-04-25T10:07:45;86.57;;;8.87;;
47844;SDS011;33605;48.822;8.796;2023-04-25T10:10:11;2.70;;;1.73;;
47844;SDS011;33605;48.822;8.796;2023-04-25T10:12:38;2.40;;;1.80;;
47844;SDS011;33605;48.822;8.796;2023-04-25T10:15:05;4.70;;;2.27;;
47844;SDS011;33605;48.822;8.796;2023-04-25T10:17:33;1.53;;;1.43;;
47844;SDS011;33605;48.822;8.796;2023-04-25T10:20:01;1.43;;;1.33;;
47844;SDS011;33605;48.822;8.796;2023-04-25T10:22:34;2.83;;;2.53;;
47844;SDS011;33605;48.822;8.796;2023-04-25T10:25:03;2.53;;;2.33;;
47844;SDS011;33605;48.822;8.796;2023-04-25T10:27:30;5.90;;;2.53;;
47844;SDS011;33605;48.822;8.796;2023-04-25T10:30:09;8.17;;;4.37;;
47844;SDS011;33605;48.822;8.796;2023-04-25T10:32:39;4.30;;;3.57;;
47844;SDS011;33605;48.822;8.796;2023-04-25T10:38:32;4.00;;;2.50;;
47844;SDS011;33605;48.822;8.796;2023-04-25T10:40:39;9.27;;;4.37;;
47844;SDS011;33605;48.822;8.796;2023-04-25T10:48:46;8.70;;;3.60;;
47844;SDS011;33605;48.822;8.796;2023-04-25T10:51:34;4.20;;;3.20;;
47844;SDS011;33605;48.822;8.796;2023-04-25T10:54:05;3.67;;;3.23;;
47844;SDS011;33605;48.822;8.796;2023-04-25T10:56:32;5.80;;;4.23;;
47844;SDS011;33605;48.822;8.796;2023-04-25T11:01:35;5.80;;;3.90;;
47844;SDS011;33605;48.822;8.796;2023-04-25T11:04:03;7.07;;;4.40;;
47844;SDS011;33605;48.822;8.796;2023-04-25T11:06:29;10.37;;;6.30;;
47844;SDS011;33605;48.822;8.796;2023-04-25T11:09:11;16.30;;;7.67;;
47844;SDS011;33605;48.822;8.796;2023-04-25T11:11:38;10.50;;;7.60;;
47844;SDS011;33605;48.822;8.796;2023-04-25T11:14:04;9.17;;;6.13;;
47844;SDS011;33605;48.822;8.796;2023-04-25T11:16:30;4.67;;;4.03;;
47844;SDS011;33605;48.822;8.796;2023-04-25T11:18:57;5.23;;;3.90;;
47844;SDS011;33605;48.822;8.796;2023-04-25T11:21:25;4.20;;;3.80;;
47844;SDS011;33605;48.822;8.796;2023-04-25T11:23:52;3.77;;;3.47;;
47844;SDS011;33605;48.822;8.796;2023-04-25T11:26:21;5.03;;;4.53;;
47844;SDS011;33605;48.822;8.796;2023-04-25T11:28:48;5.80;;;3.97;;
47844;SDS011;33605;48.822;8.796;2023-04-25T11:31:14;4.80;;;4.00;;
47844;SDS011;33605;48.822;8.796;2023-04-25T11:33:40;10.17;;;6.90;;
47844;SDS011;33605;48.822;8.796;2023-04-25T11:36:06;10.13;;;5.33;;
47844;SDS011;33605;48.822;8.796;2023-04-25T11:38:31;4.47;;;4.07;;
47844;SDS011;33605;48.822;8.796;2023-04-25T11:40:57;5.67;;;5.10;;
47844;SDS011;33605;48.822;8.796;2023-04-25T11:43:23;4.60;;;4.17;;
47844;SDS011;33605;48.822;8.796;2023-04-25T11:45:50;4.87;;;4.37;;
47844;SDS011;33605;48.822;8.796;2023-04-25T11:48:17;7.90;;;3.87;;
47844;SDS011;33605;48.822;8.796;2023-04-25T11:50:43;3.77;;;3.40;;
47844;SDS011;33605;48.822;8.796;2023-04-25T11:53:10;3.93;;;3.53;;
47844;SDS011;33605;48.822;8.796;2023-04-25T11:55:36;3.63;;;3.07;;
47844;SDS011;33605;48.822;8.796;2023-04-25T11:58:02;3.47;;;3.00;;
47844;SDS011;33605;48.822;8.796;2023-04-25T12:00:29;6.70;;;3.00;;
47844;SDS011;33605;48.822;8.796;2023-04-25T12:02:56;4.50;;;3.50;;
47844;SDS011;33605;48.822;8.796;2023-04-25T12:05:27;3.30;;;3.00;;
47844;SDS011;33605;48.822;8.796;2023-04-25T12:07:58;4.53;;;3.60;;
47844;SDS011;33605;48.822;8.796;2023-04-25T12:10:36;3.30;;;3.00;;
47844;SDS011;33605;48.822;8.796;2023-04-25T12:13:17;12.83;;;4.00;;
47844;SDS011;33605;48.822;8.796;2023-04-25T12:15:46;4.17;;;3.40;;
47844;SDS011;33605;48.822;8.796;2023-04-25T12:18:12;5.70;;;4.10;;
47844;SDS011;33605;48.822;8.796;2023-04-25T12:20:38;4.40;;;3.90;;
47844;SDS011;33605;48.822;8.796;2023-04-25T12:23:07;3.93;;;3.47;;
47844;SDS011;33605;48.822;8.796;2023-04-25T12:25:42;5.83;;;3.10;;
47844;SDS011;33605;48.822;8.796;2023-04-25T12:28:13;13.53;;;3.10;;
47844;SDS011;33605;48.822;8.796;2023-04-25T12:30:53;2.97;;;2.70;;
47844;SDS011;33605;48.822;8.796;2023-04-25T12:33:27;5.07;;;3.00;;
47844;SDS011;33605;48.822;8.796;2023-04-25T12:36:01;3.47;;;3.17;;
47844;SDS011;33605;48.822;8.796;2023-04-25T12:38:35;3.40;;;3.10;;
47844;SDS011;33605;48.822;8.796;2023-04-25T12:41:02;4.47;;;3.53;;
47844;SDS011;33605;48.822;8.796;2023-04-25T12:43:28;4.83;;;4.33;;
47844;SDS011;33605;48.822;8.796;2023-04-25T12:45:55;5.40;;;3.80;;
47844;SDS011;33605;48.822;8.796;2023-04-25T12:48:21;4.73;;;3.83;;
47844;SDS011;33605;48.822;8.796;2023-04-25T12:50:47;6.03;;;4.77;;
47844;SDS011;33605;48.822;8.796;2023-04-25T12:53:15;5.30;;;4.80;;
47844;SDS011;33605;48.822;8.796;2023-04-25T12:55:41;6.93;;;4.73;;
47844;SDS011;33605;48.822;8.796;2023-04-25T12:58:07;8.77;;;4.80;;
47844;SDS011;33605;48.822;8.796;2023-04-25T13:00:33;4.80;;;4.40;;
47844;SDS011;33605;48.822;8.796;2023-04-25T13:02:58;8.47;;;4.57;;
47844;SDS011;33605;48.822;8.796;2023-04-25T13:05:24;6.30;;;4.77;;
47844;SDS011;33605;48.822;8.796;2023-04-25T13:07:50;5.83;;;4.67;;
47844;SDS011;33605;48.822;8.796;2023-04-25T13:10:16;5.37;;;4.53;;
47844;SDS011;33605;48.822;8.796;2023-04-25T13:12:43;6.73;;;5.03;;
47844;SDS011;33605;48.822;8.796;2023-04-25T13:15:09;4.50;;;4.10;;
47844;SDS011;33605;48.822;8.796;2023-04-25T13:17:36;6.67;;;4.60;;
47844;SDS011;33605;48.822;8.796;2023-04-25T13:20:03;6.03;;;5.00;;
47844;SDS011;33605;48.822;8.796;2023-04-25T13:22:34;7.67;;;4.67;;
47844;SDS011;33605;48.822;8.796;2023-04-25T13:25:04;6.43;;;5.70;;
47844;SDS011;33605;48.822;8.796;2023-04-25T13:27:31;8.07;;;5.80;;
47844;SDS011;33605;48.822;8.796;2023-04-25T13:29:58;12.30;;;6.37;;
47844;SDS011;33605;48.822;8.796;2023-04-25T13:32:25;42.27;;;10.20;;
47844;SDS011;33605;48.822;8.796;2023-04-25T13:34:51;26.73;;;6.83;;
47844;SDS011;33605;48.822;8.796;2023-04-25T13:37:17;6.00;;;5.10;;
47844;SDS011;33605;48.822;8.796;2023-04-25T13:39:43;4.40;;;4.00;;
47844;SDS011;33605;48.822;8.796;2023-04-25T13:42:09;8.30;;;5.90;;
47844;SDS011;33605;48.822;8.796;2023-04-25T13:44:35;4.80;;;3.90;;
47844;SDS011;33605;48.822;8.796;2023-04-25T13:47:02;4.90;;;4.30;;
47844;SDS011;33605;48.822;8.796;2023-04-25T13:49:28;4.33;;;3.77;;
47844;SDS011;33605;48.822;8.796;2023-04-25T13:51:53;7.37;;;5.13;;
47844;SDS011;33605;48.822;8.796;2023-04-25T13:54:20;31.20;;;7.67;;
47844;SDS011;33605;48.822;8.796;2023-04-25T13:56:45;12.67;;;6.17;;
47844;SDS011;33605;48.822;8.796;2023-04-25T13:59:11;5.07;;;4.60;;
47844;SDS011;33605;48.822;8.796;2023-04-25T14:01:36;4.13;;;3.73;;
47844;SDS011;33605;48.822;8.796;2023-04-25T14:04:03;4.23;;;3.83;;
47844;SDS011;33605;48.822;8.796;2023-04-25T14:06:29;3.03;;;2.73;;
47844;SDS011;33605;48.822;8.796;2023-04-25T14:08:56;3.73;;;3.43;;
47844;SDS011;33605;48.822;8.796;2023-04-25T14:11:22;3.57;;;3.27;;
47844;SDS011;33605;48.822;8.796;2023-04-25T14:13:47;3.63;;;2.80;;
47844;SDS011;33605;48.822;8.796;2023-04-25T14:16:14;3.20;;;2.93;;
47844;SDS011;33605;48.822;8.796;2023-04-25T14:18:40;4.27;;;2.80;;
47844;SDS011;33605;48.822;8.796;2023-04-25T14:21:06;3.03;;;2.70;;
47844;SDS011;33605;48.822;8.796;2023-04-25T14:23:32;11.10;;;8.10;;
47844;SDS011;33605;48.822;8.796;2023-04-25T14:25:58;4.40;;;4.00;;
47844;SDS011;33605;48.822;8.796;2023-04-25T14:28:25;6.37;;;5.77;;
47844;SDS011;33605;48.822;8.796;2023-04-25T14:30:50;4.03;;;3.73;;
47844;SDS011;33605;48.822;8.796;2023-04-25T14:33:16;3.00;;;2.80;;
47844;SDS011;33605;48.822;8.796;2023-04-25T14:35:42;3.00;;;2.70;;
47844;SDS011;33605;48.822;8.796;2023-04-25T14:38:08;4.40;;;3.53;;
47844;SDS011;33605;48.822;8.796;2023-04-25T14:40:34;4.17;;;3.60;;
47844;SDS011;33605;48.822;8.796;2023-04-25T14:43:01;4.37;;;3.97;;
47844;SDS011;33605;48.822;8.796;2023-04-25T14:45:27;4.50;;;4.07;;
47844;SDS011;33605;48.822;8.796;2023-04-25T14:47:53;3.40;;;3.10;;
47844;SDS011;33605;48.822;8.796;2023-04-25T14:50:20;3.97;;;3.37;;
47844;SDS011;33605;48.822;8.796;2023-04-25T14:52:46;3.80;;;3.50;;
47844;SDS011;33605;48.822;8.796;2023-04-25T14:55:13;3.57;;;3.27;;
47844;SDS011;33605;48.822;8.796;2023-04-25T14:57:39;3.77;;;3.00;;
47844;SDS011;33605;48.822;8.796;2023-04-25T15:00:05;6.90;;;3.47;;
47844;SDS011;33605;48.822;8.796;2023-04-25T15:02:34;3.60;;;3.27;;
47844;SDS011;33605;48.822;8.796;2023-04-25T15:05:01;5.10;;;4.70;;
47844;SDS011;33605;48.822;8.796;2023-04-25T15:07:28;4.43;;;3.40;;
47844;SDS011;33605;48.822;8.796;2023-04-25T15:09:54;6.40;;;4.00;;
47844;SDS011;33605;48.822;8.796;2023-04-25T15:12:21;4.10;;;3.70;;
47844;SDS011;33605;48.822;8.796;2023-04-25T15:14:47;5.17;;;3.30;;